sensor_id;sensor_type;location;lat;lon;timestamp;P1;durP1;ratioP1;P2;durP2;ratioP2
60318;SDS011;46163;52.306;5.634;2023-02-03T00:00:37;1.17;;;1.08;;
60318;SDS011;46163;52.306;5.634;2023-02-03T00:03:03;1.13;;;1.13;;
60318;SDS011;46163;52.306;5.634;2023-02-03T00:05:29;0.95;;;0.93;;
60318;SDS011;46163;52.306;5.634;2023-02-03T00:07:56;0.93;;;0.93;;
60318;SDS011;46163;52.306;5.634;2023-02-03T00:10:22;0.95;;;0.95;;
60318;SDS011;46163;52.306;5.634;2023-02-03T00:12:48;1.25;;;1.10;;
60318;SDS011;46163;52.306;5.634;2023-02-03T00:15:15;1.00;;;1.00;;
60318;SDS011;46163;52.306;5.634;2023-02-03T00:17:41;1.20;;;1.10;;
60318;SDS011;46163;52.306;5.634;2023-02-03T00:20:07;1.67;;;1.02;;
60318;SDS011;46163;52.306;5.634;2023-02-03T00:22:33;1.00;;;1.00;;
60318;SDS011;46163;52.306;5.634;2023-02-03T00:24:58;1.23;;;1.20;;
60318;SDS011;46163;52.306;5.634;2023-02-03T00:27:24;1.25;;;1.17;;
60318;SDS011;46163;52.306;5.634;2023-02-03T00:29:49;1.00;;;1.00;;
60318;SDS011;46163;52.306;5.634;2023-02-03T00:32:15;0.90;;;0.90;;
60318;SDS011;46163;52.306;5.634;2023-02-03T00:34:41;1.50;;;1.30;;
60318;SDS011;46163;52.306;5.634;2023-02-03T00:37:07;0.90;;;0.90;;
60318;SDS011;46163;52.306;5.634;2023-02-03T00:39:34;1.17;;;1.10;;
60318;SDS011;46163;52.306;5.634;2023-02-03T00:42:01;0.90;;;0.90;;
60318;SDS011;46163;52.306;5.634;2023-02-03T00:44:28;1.20;;;0.85;;
60318;SDS011;46163;52.306;5.634;2023-02-03T00:46:53;1.00;;;1.00;;
60318;SDS011;46163;52.306;5.634;2023-02-03T00:49:19;0.98;;;0.88;;
60318;SDS011;46163;52.306;5.634;2023-02-03T00:51:45;0.93;;;0.93;;
60318;SDS011;46163;52.306;5.634;2023-02-03T00:54:10;2.15;;;1.30;;
60318;SDS011;46163;52.306;5.634;2023-02-03T00:56:37;1.65;;;0.90;;
60318;SDS011;46163;52.306;5.634;2023-02-03T00:59:03;1.00;;;0.90;;
60318;SDS011;46163;52.306;5.634;2023-02-03T01:01:29;0.93;;;0.93;;
60318;SDS011;46163;52.306;5.634;2023-02-03T01:03:55;0.90;;;0.90;;
60318;SDS011;46163;52.306;5.634;2023-02-03T01:06:22;0.90;;;0.90;;
60318;SDS011;46163;52.306;5.634;2023-02-03T01:08:48;0.77;;;0.77;;
60318;SDS011;46163;52.306;5.634;2023-02-03T01:11:16;0.80;;;0.80;;
60318;SDS011;46163;52.306;5.634;2023-02-03T01:13:46;1.75;;;1.00;;
60318;SDS011;46163;52.306;5.634;2023-02-03T01:16:14;1.10;;;1.00;;
60318;SDS011;46163;52.306;5.634;2023-02-03T01:18:41;1.13;;;0.98;;
60318;SDS011;46163;52.306;5.634;2023-02-03T01:21:07;0.80;;;0.80;;
60318;SDS011;46163;52.306;5.634;2023-02-03T01:23:35;1.30;;;1.20;;
60318;SDS011;46163;52.306;5.634;2023-02-03T01:26:05;1.10;;;1.10;;
60318;SDS011;46163;52.306;5.634;2023-02-03T01:28:35;1.55;;;1.05;;
60318;SDS011;46163;52.306;5.634;2023-02-03T01:31:15;1.02;;;1.00;;
60318;SDS011;46163;52.306;5.634;2023-02-03T01:33:43;1.13;;;1.13;;
60318;SDS011;46163;52.306;5.634;2023-02-03T01:36:15;0.98;;;0.98;;
60318;SDS011;46163;52.306;5.634;2023-02-03T01:38:42;0.77;;;0.77;;
60318;SDS011;46163;52.306;5.634;2023-02-03T01:41:10;1.20;;;1.10;;
60318;SDS011;46163;52.306;5.634;2023-02-03T01:43:42;0.82;;;0.82;;
60318;SDS011;46163;52.306;5.634;2023-02-03T01:46:23;1.17;;;0.93;;
60318;SDS011;46163;52.306;5.634;2023-02-03T01:49:12;1.08;;;1.02;;
60318;SDS011;46163;52.306;5.634;2023-02-03T01:51:43;0.98;;;0.90;;
60318;SDS011;46163;52.306;5.634;2023-02-03T01:54:13;0.93;;;0.93;;
60318;SDS011;46163;52.306;5.634;2023-02-03T01:56:46;0.85;;;0.85;;
60318;SDS011;46163;52.306;5.634;2023-02-03T01:59:15;1.00;;;0.90;;
60318;SDS011;46163;52.306;5.634;2023-02-03T02:01:42;1.38;;;1.02;;
60318;SDS011;46163;52.306;5.634;2023-02-03T02:04:09;1.55;;;0.88;;
60318;SDS011;46163;52.306;5.634;2023-02-03T02:06:35;1.00;;;1.00;;
60318;SDS011;46163;52.306;5.634;2023-02-03T02:09:00;1.00;;;1.00;;
60318;SDS011;46163;52.306;5.634;2023-02-03T02:11:31;1.02;;;0.90;;
60318;SDS011;46163;52.306;5.634;2023-02-03T02:13:58;1.23;;;1.13;;
60318;SDS011;46163;52.306;5.634;2023-02-03T02:30:28;0.95;;;0.90;;
60318;SDS011;46163;52.306;5.634;2023-02-03T02:33:21;1.05;;;1.02;;
60318;SDS011;46163;52.306;5.634;2023-02-03T02:36:08;0.73;;;0.73;;
60318;SDS011;46163;52.306;5.634;2023-02-03T02:46:57;0.82;;;0.82;;
60318;SDS011;46163;52.306;5.634;2023-02-03T02:52:29;0.93;;;0.88;;
60318;SDS011;46163;52.306;5.634;2023-02-03T02:55:00;0.90;;;0.90;;
60318;SDS011;46163;52.306;5.634;2023-02-03T02:57:32;1.63;;;1.20;;
60318;SDS011;46163;52.306;5.634;2023-02-03T03:00:00;1.63;;;0.75;;
60318;SDS011;46163;52.306;5.634;2023-02-03T03:02:34;0.70;;;0.70;;
60318;SDS011;46163;52.306;5.634;2023-02-03T03:05:01;0.80;;;0.80;;
60318;SDS011;46163;52.306;5.634;2023-02-03T03:07:29;0.60;;;0.60;;
60318;SDS011;46163;52.306;5.634;2023-02-03T03:10:03;1.75;;;0.80;;
60318;SDS011;46163;52.306;5.634;2023-02-03T03:12:35;1.02;;;0.88;;
60318;SDS011;46163;52.306;5.634;2023-02-03T03:15:07;0.90;;;0.90;;
60318;SDS011;46163;52.306;5.634;2023-02-03T03:17:40;1.30;;;1.20;;
60318;SDS011;46163;52.306;5.634;2023-02-03T03:20:14;1.08;;;1.00;;
60318;SDS011;46163;52.306;5.634;2023-02-03T03:23:01;0.68;;;0.68;;
60318;SDS011;46163;52.306;5.634;2023-02-03T03:25:36;0.80;;;0.80;;
60318;SDS011;46163;52.306;5.634;2023-02-03T03:28:07;0.90;;;0.90;;
60318;SDS011;46163;52.306;5.634;2023-02-03T03:30:38;0.85;;;0.85;;
60318;SDS011;46163;52.306;5.634;2023-02-03T03:33:04;1.10;;;0.90;;
60318;SDS011;46163;52.306;5.634;2023-02-03T03:35:35;0.90;;;0.90;;
60318;SDS011;46163;52.306;5.634;2023-02-03T03:41:15;0.77;;;0.77;;
60318;SDS011;46163;52.306;5.634;2023-02-03T03:43:50;1.02;;;0.90;;
60318;SDS011;46163;52.306;5.634;2023-02-03T03:46:20;0.70;;;0.70;;
60318;SDS011;46163;52.306;5.634;2023-02-03T03:48:55;1.50;;;1.00;;
60318;SDS011;46163;52.306;5.634;2023-02-03T03:54:10;1.45;;;0.80;;
60318;SDS011;46163;52.306;5.634;2023-02-03T03:56:40;0.88;;;0.88;;
60318;SDS011;46163;52.306;5.634;2023-02-03T03:59:12;0.77;;;0.77;;
60318;SDS011;46163;52.306;5.634;2023-02-03T04:01:40;0.60;;;0.60;;
60318;SDS011;46163;52.306;5.634;2023-02-03T04:04:08;1.20;;;0.88;;
60318;SDS011;46163;52.306;5.634;2023-02-03T04:06:36;0.95;;;0.93;;
60318;SDS011;46163;52.306;5.634;2023-02-03T04:09:04;0.70;;;0.70;;
60318;SDS011;46163;52.306;5.634;2023-02-03T04:11:30;0.73;;;0.70;;
60318;SDS011;46163;52.306;5.634;2023-02-03T04:14:16;0.90;;;0.90;;
60318;SDS011;46163;52.306;5.634;2023-02-03T04:16:42;1.35;;;0.90;;
60318;SDS011;46163;52.306;5.634;2023-02-03T04:19:07;2.03;;;0.93;;
60318;SDS011;46163;52.306;5.634;2023-02-03T04:21:33;1.20;;;0.77;;
60318;SDS011;46163;52.306;5.634;2023-02-03T04:23:58;1.75;;;0.80;;
60318;SDS011;46163;52.306;5.634;2023-02-03T04:26:24;0.60;;;0.60;;
60318;SDS011;46163;52.306;5.634;2023-02-03T04:28:49;0.85;;;0.85;;
60318;SDS011;46163;52.306;5.634;2023-02-03T04:31:15;0.88;;;0.88;;
60318;SDS011;46163;52.306;5.634;2023-02-03T04:33:41;0.63;;;0.63;;
60318;SDS011;46163;52.306;5.634;2023-02-03T04:36:06;0.75;;;0.75;;
60318;SDS011;46163;52.306;5.634;2023-02-03T04:38:35;0.68;;;0.68;;
60318;SDS011;46163;52.306;5.634;2023-02-03T04:41:00;0.75;;;0.75;;
60318;SDS011;46163;52.306;5.634;2023-02-03T04:43:26;0.73;;;0.73;;
60318;SDS011;46163;52.306;5.634;2023-02-03T04:45:51;0.70;;;0.70;;
60318;SDS011;46163;52.306;5.634;2023-02-03T04:48:17;0.45;;;0.45;;
60318;SDS011;46163;52.306;5.634;2023-02-03T04:50:42;0.70;;;0.70;;
60318;SDS011;46163;52.306;5.634;2023-02-03T04:53:08;0.95;;;0.90;;
60318;SDS011;46163;52.306;5.634;2023-02-03T04:55:33;0.70;;;0.70;;
60318;SDS011;46163;52.306;5.634;2023-02-03T04:57:59;0.57;;;0.57;;
60318;SDS011;46163;52.306;5.634;2023-02-03T05:00:26;0.60;;;0.60;;
60318;SDS011;46163;52.306;5.634;2023-02-03T05:02:53;0.63;;;0.63;;
60318;SDS011;46163;52.306;5.634;2023-02-03T05:05:19;0.80;;;0.80;;
60318;SDS011;46163;52.306;5.634;2023-02-03T05:07:45;0.40;;;0.40;;
60318;SDS011;46163;52.306;5.634;2023-02-03T05:10:10;0.70;;;0.70;;
60318;SDS011;46163;52.306;5.634;2023-02-03T05:12:36;0.93;;;0.60;;
60318;SDS011;46163;52.306;5.634;2023-02-03T05:15:02;0.47;;;0.47;;
60318;SDS011;46163;52.306;5.634;2023-02-03T05:17:28;0.60;;;0.60;;
60318;SDS011;46163;52.306;5.634;2023-02-03T05:19:54;0.57;;;0.57;;
60318;SDS011;46163;52.306;5.634;2023-02-03T05:22:20;0.60;;;0.60;;
60318;SDS011;46163;52.306;5.634;2023-02-03T05:24:47;0.80;;;0.80;;
60318;SDS011;46163;52.306;5.634;2023-02-03T05:27:13;0.75;;;0.60;;
60318;SDS011;46163;52.306;5.634;2023-02-03T05:29:38;0.70;;;0.70;;
60318;SDS011;46163;52.306;5.634;2023-02-03T05:32:04;0.57;;;0.57;;
60318;SDS011;46163;52.306;5.634;2023-02-03T05:34:29;0.60;;;0.60;;
60318;SDS011;46163;52.306;5.634;2023-02-03T05:36:55;0.30;;;0.30;;
60318;SDS011;46163;52.306;5.634;2023-02-03T05:39:21;1.02;;;0.47;;
60318;SDS011;46163;52.306;5.634;2023-02-03T05:41:46;0.60;;;0.60;;
60318;SDS011;46163;52.306;5.634;2023-02-03T05:44:22;0.60;;;0.60;;
60318;SDS011;46163;52.306;5.634;2023-02-03T05:46:52;0.45;;;0.45;;
60318;SDS011;46163;52.306;5.634;2023-02-03T05:49:20;0.63;;;0.63;;
60318;SDS011;46163;52.306;5.634;2023-02-03T05:51:50;0.68;;;0.68;;
60318;SDS011;46163;52.306;5.634;2023-02-03T05:54:17;0.63;;;0.57;;
60318;SDS011;46163;52.306;5.634;2023-02-03T05:56:43;0.50;;;0.50;;
60318;SDS011;46163;52.306;5.634;2023-02-03T05:59:08;0.40;;;0.40;;
60318;SDS011;46163;52.306;5.634;2023-02-03T06:01:35;0.35;;;0.35;;
60318;SDS011;46163;52.306;5.634;2023-02-03T06:04:01;0.47;;;0.47;;
60318;SDS011;46163;52.306;5.634;2023-02-03T06:06:27;0.40;;;0.40;;
60318;SDS011;46163;52.306;5.634;2023-02-03T06:09:01;0.52;;;0.52;;
60318;SDS011;46163;52.306;5.634;2023-02-03T06:11:28;0.47;;;0.47;;
60318;SDS011;46163;52.306;5.634;2023-02-03T06:13:54;0.65;;;0.65;;
60318;SDS011;46163;52.306;5.634;2023-02-03T06:18:49;0.57;;;0.57;;
60318;SDS011;46163;52.306;5.634;2023-02-03T06:21:18;0.55;;;0.55;;
60318;SDS011;46163;52.306;5.634;2023-02-03T06:23:45;1.80;;;0.50;;
60318;SDS011;46163;52.306;5.634;2023-02-03T06:26:11;0.60;;;0.60;;
60318;SDS011;46163;52.306;5.634;2023-02-03T06:28:36;0.52;;;0.52;;
60318;SDS011;46163;52.306;5.634;2023-02-03T06:31:02;0.50;;;0.50;;
60318;SDS011;46163;52.306;5.634;2023-02-03T06:33:29;0.60;;;0.60;;
60318;SDS011;46163;52.306;5.634;2023-02-03T06:35:57;0.50;;;0.50;;
60318;SDS011;46163;52.306;5.634;2023-02-03T06:38:22;1.65;;;0.75;;
60318;SDS011;46163;52.306;5.634;2023-02-03T06:40:48;0.50;;;0.50;;
60318;SDS011;46163;52.306;5.634;2023-02-03T06:43:14;0.65;;;0.65;;
60318;SDS011;46163;52.306;5.634;2023-02-03T06:45:40;0.52;;;0.52;;
60318;SDS011;46163;52.306;5.634;2023-02-03T06:48:10;1.17;;;0.70;;
60318;SDS011;46163;52.306;5.634;2023-02-03T06:50:35;0.70;;;0.70;;
60318;SDS011;46163;52.306;5.634;2023-02-03T06:53:01;0.60;;;0.60;;
60318;SDS011;46163;52.306;5.634;2023-02-03T06:55:27;0.63;;;0.52;;
60318;SDS011;46163;52.306;5.634;2023-02-03T06:57:52;0.77;;;0.70;;
60318;SDS011;46163;52.306;5.634;2023-02-03T07:00:18;1.23;;;0.63;;
60318;SDS011;46163;52.306;5.634;2023-02-03T07:02:44;1.02;;;0.93;;
60318;SDS011;46163;52.306;5.634;2023-02-03T07:05:10;1.27;;;1.02;;
60318;SDS011;46163;52.306;5.634;2023-02-03T07:07:35;1.08;;;0.80;;
60318;SDS011;46163;52.306;5.634;2023-02-03T07:10:05;1.05;;;0.60;;
60318;SDS011;46163;52.306;5.634;2023-02-03T07:12:31;0.73;;;0.70;;
60318;SDS011;46163;52.306;5.634;2023-02-03T07:14:57;1.42;;;0.98;;
60318;SDS011;46163;52.306;5.634;2023-02-03T07:17:22;2.13;;;0.90;;
60318;SDS011;46163;52.306;5.634;2023-02-03T07:19:48;1.60;;;0.90;;
60318;SDS011;46163;52.306;5.634;2023-02-03T07:22:13;0.70;;;0.70;;
60318;SDS011;46163;52.306;5.634;2023-02-03T07:24:41;0.77;;;0.73;;
60318;SDS011;46163;52.306;5.634;2023-02-03T07:27:07;0.68;;;0.68;;
60318;SDS011;46163;52.306;5.634;2023-02-03T07:29:33;1.88;;;0.75;;
60318;SDS011;46163;52.306;5.634;2023-02-03T07:31:58;0.75;;;0.75;;
60318;SDS011;46163;52.306;5.634;2023-02-03T07:34:26;0.77;;;0.77;;
60318;SDS011;46163;52.306;5.634;2023-02-03T07:36:52;0.63;;;0.63;;
60318;SDS011;46163;52.306;5.634;2023-02-03T07:39:17;2.10;;;1.05;;
60318;SDS011;46163;52.306;5.634;2023-02-03T07:41:43;0.82;;;0.80;;
60318;SDS011;46163;52.306;5.634;2023-02-03T07:44:08;1.08;;;0.82;;
60318;SDS011;46163;52.306;5.634;2023-02-03T07:46:34;0.85;;;0.70;;
60318;SDS011;46163;52.306;5.634;2023-02-03T07:49:04;1.15;;;0.90;;
60318;SDS011;46163;52.306;5.634;2023-02-03T07:51:30;0.85;;;0.80;;
60318;SDS011;46163;52.306;5.634;2023-02-03T07:53:55;0.55;;;0.55;;
60318;SDS011;46163;52.306;5.634;2023-02-03T07:56:21;1.55;;;0.98;;
60318;SDS011;46163;52.306;5.634;2023-02-03T07:58:46;0.73;;;0.70;;
60318;SDS011;46163;52.306;5.634;2023-02-03T08:01:13;0.95;;;0.90;;
60318;SDS011;46163;52.306;5.634;2023-02-03T08:03:40;0.80;;;0.80;;
60318;SDS011;46163;52.306;5.634;2023-02-03T08:06:07;0.60;;;0.60;;
60318;SDS011;46163;52.306;5.634;2023-02-03T08:11:00;1.38;;;0.77;;
60318;SDS011;46163;52.306;5.634;2023-02-03T08:13:25;1.75;;;1.08;;
60318;SDS011;46163;52.306;5.634;2023-02-03T08:15:52;0.90;;;0.80;;
60318;SDS011;46163;52.306;5.634;2023-02-03T08:18:18;2.38;;;1.40;;
60318;SDS011;46163;52.306;5.634;2023-02-03T08:20:46;1.00;;;1.00;;
60318;SDS011;46163;52.306;5.634;2023-02-03T08:23:14;1.50;;;1.10;;
60318;SDS011;46163;52.306;5.634;2023-02-03T08:25:40;1.67;;;1.10;;
60318;SDS011;46163;52.306;5.634;2023-02-03T08:28:06;1.65;;;1.10;;
60318;SDS011;46163;52.306;5.634;2023-02-03T08:30:31;2.80;;;1.30;;
60318;SDS011;46163;52.306;5.634;2023-02-03T08:33:00;1.33;;;1.17;;
60318;SDS011;46163;52.306;5.634;2023-02-03T08:37:51;1.65;;;1.10;;
60318;SDS011;46163;52.306;5.634;2023-02-03T08:40:17;3.05;;;1.17;;
60318;SDS011;46163;52.306;5.634;2023-02-03T08:42:42;2.88;;;1.33;;
60318;SDS011;46163;52.306;5.634;2023-02-03T08:45:08;3.53;;;1.40;;
60318;SDS011;46163;52.306;5.634;2023-02-03T08:47:34;2.22;;;1.20;;
60318;SDS011;46163;52.306;5.634;2023-02-03T08:50:03;2.00;;;1.20;;
60318;SDS011;46163;52.306;5.634;2023-02-03T08:52:30;1.45;;;0.95;;
60318;SDS011;46163;52.306;5.634;2023-02-03T08:54:56;3.58;;;1.50;;
60318;SDS011;46163;52.306;5.634;2023-02-03T08:57:22;1.15;;;1.00;;
60318;SDS011;46163;52.306;5.634;2023-02-03T08:59:47;2.78;;;1.25;;
60318;SDS011;46163;52.306;5.634;2023-02-03T09:02:14;0.80;;;0.73;;
60318;SDS011;46163;52.306;5.634;2023-02-03T09:07:07;1.80;;;1.10;;
60318;SDS011;46163;52.306;5.634;2023-02-03T09:09:33;1.10;;;0.90;;
60318;SDS011;46163;52.306;5.634;2023-02-03T09:11:59;1.70;;;1.10;;
60318;SDS011;46163;52.306;5.634;2023-02-03T09:14:29;0.90;;;0.82;;
60318;SDS011;46163;52.306;5.634;2023-02-03T09:16:57;2.55;;;1.52;;
60318;SDS011;46163;52.306;5.634;2023-02-03T09:19:23;1.92;;;1.00;;
60318;SDS011;46163;52.306;5.634;2023-02-03T09:21:49;1.73;;;1.10;;
60318;SDS011;46163;52.306;5.634;2023-02-03T09:24:16;1.15;;;0.85;;
60318;SDS011;46163;52.306;5.634;2023-02-03T09:26:43;2.10;;;0.88;;
60318;SDS011;46163;52.306;5.634;2023-02-03T09:29:09;2.13;;;1.08;;
60318;SDS011;46163;52.306;5.634;2023-02-03T09:31:35;1.10;;;0.90;;
60318;SDS011;46163;52.306;5.634;2023-02-03T09:34:01;2.08;;;1.13;;
60318;SDS011;46163;52.306;5.634;2023-02-03T09:36:27;1.48;;;0.90;;
60318;SDS011;46163;52.306;5.634;2023-02-03T09:38:54;0.95;;;0.93;;
60318;SDS011;46163;52.306;5.634;2023-02-03T09:47:12;1.55;;;1.05;;
60318;SDS011;46163;52.306;5.634;2023-02-03T09:49:49;2.08;;;1.10;;
60318;SDS011;46163;52.306;5.634;2023-02-03T09:52:19;2.33;;;1.02;;
60318;SDS011;46163;52.306;5.634;2023-02-03T09:58:02;4.32;;;1.27;;
60318;SDS011;46163;52.306;5.634;2023-02-03T10:00:50;2.63;;;1.17;;
60318;SDS011;46163;52.306;5.634;2023-02-03T10:03:22;2.00;;;1.30;;
60318;SDS011;46163;52.306;5.634;2023-02-03T10:09:03;2.13;;;1.42;;
60318;SDS011;46163;52.306;5.634;2023-02-03T10:17:51;2.45;;;1.70;;
60318;SDS011;46163;52.306;5.634;2023-02-03T10:20:40;2.92;;;1.40;;
60318;SDS011;46163;52.306;5.634;2023-02-03T10:23:14;1.23;;;0.90;;
60318;SDS011;46163;52.306;5.634;2023-02-03T10:25:47;1.13;;;1.02;;
60318;SDS011;46163;52.306;5.634;2023-02-03T10:28:21;3.10;;;1.10;;
60318;SDS011;46163;52.306;5.634;2023-02-03T10:30:51;3.70;;;1.40;;
60318;SDS011;46163;52.306;5.634;2023-02-03T10:33:21;2.47;;;1.13;;
60318;SDS011;46163;52.306;5.634;2023-02-03T10:40:58;0.80;;;0.80;;
60318;SDS011;46163;52.306;5.634;2023-02-03T10:43:23;0.95;;;0.93;;
60318;SDS011;46163;52.306;5.634;2023-02-03T10:46:07;1.17;;;0.90;;
60318;SDS011;46163;52.306;5.634;2023-02-03T10:48:33;0.88;;;0.85;;
60318;SDS011;46163;52.306;5.634;2023-02-03T10:50:59;1.30;;;1.00;;
60318;SDS011;46163;52.306;5.634;2023-02-03T10:53:33;3.10;;;1.27;;
60318;SDS011;46163;52.306;5.634;2023-02-03T10:56:05;0.90;;;0.73;;
60318;SDS011;46163;52.306;5.634;2023-02-03T10:58:33;1.80;;;0.90;;
60318;SDS011;46163;52.306;5.634;2023-02-03T11:01:20;2.17;;;1.13;;
60318;SDS011;46163;52.306;5.634;2023-02-03T11:04:04;1.80;;;1.10;;
60318;SDS011;46163;52.306;5.634;2023-02-03T11:06:32;2.58;;;1.00;;
60318;SDS011;46163;52.306;5.634;2023-02-03T11:09:00;0.85;;;0.82;;
60318;SDS011;46163;52.306;5.634;2023-02-03T11:11:28;0.82;;;0.77;;
60318;SDS011;46163;52.306;5.634;2023-02-03T11:16:33;1.95;;;1.10;;
60318;SDS011;46163;52.306;5.634;2023-02-03T11:24:03;0.80;;;0.80;;
60318;SDS011;46163;52.306;5.634;2023-02-03T11:26:46;1.13;;;0.75;;
60318;SDS011;46163;52.306;5.634;2023-02-03T11:29:26;1.25;;;0.95;;
60318;SDS011;46163;52.306;5.634;2023-02-03T11:31:55;1.65;;;0.93;;
60318;SDS011;46163;52.306;5.634;2023-02-03T11:34:28;0.98;;;0.90;;
60318;SDS011;46163;52.306;5.634;2023-02-03T11:36:54;1.02;;;0.95;;
60318;SDS011;46163;52.306;5.634;2023-02-03T11:41:48;0.70;;;0.70;;
60318;SDS011;46163;52.306;5.634;2023-02-03T11:44:25;0.75;;;0.75;;
60318;SDS011;46163;52.306;5.634;2023-02-03T11:47:06;1.08;;;0.98;;
60318;SDS011;46163;52.306;5.634;2023-02-03T11:52:44;0.70;;;0.70;;
60318;SDS011;46163;52.306;5.634;2023-02-03T11:58:04;1.05;;;0.95;;
60318;SDS011;46163;52.306;5.634;2023-02-03T12:01:11;2.17;;;0.80;;
60318;SDS011;46163;52.306;5.634;2023-02-03T12:06:36;1.20;;;0.70;;
60318;SDS011;46163;52.306;5.634;2023-02-03T12:12:19;0.70;;;0.70;;
60318;SDS011;46163;52.306;5.634;2023-02-03T12:26:02;0.93;;;0.93;;
60318;SDS011;46163;52.306;5.634;2023-02-03T12:31:59;0.70;;;0.70;;
60318;SDS011;46163;52.306;5.634;2023-02-03T12:34:34;0.70;;;0.70;;
60318;SDS011;46163;52.306;5.634;2023-02-03T12:38:08;0.60;;;0.60;;
60318;SDS011;46163;52.306;5.634;2023-02-03T12:43:09;0.70;;;0.70;;
60318;SDS011;46163;52.306;5.634;2023-02-03T12:45:45;0.73;;;0.73;;
60318;SDS011;46163;52.306;5.634;2023-02-03T12:48:18;1.10;;;0.82;;
60318;SDS011;46163;52.306;5.634;2023-02-03T12:50:52;0.90;;;0.80;;
60318;SDS011;46163;52.306;5.634;2023-02-03T12:53:35;0.73;;;0.73;;
60318;SDS011;46163;52.306;5.634;2023-02-03T12:56:48;0.68;;;0.68;;
60318;SDS011;46163;52.306;5.634;2023-02-03T12:59:05;0.70;;;0.70;;
60318;SDS011;46163;52.306;5.634;2023-02-03T13:01:57;0.68;;;0.68;;
60318;SDS011;46163;52.306;5.634;2023-02-03T13:04:31;0.95;;;0.80;;
60318;SDS011;46163;52.306;5.634;2023-02-03T13:10:23;0.60;;;0.60;;
60318;SDS011;46163;52.306;5.634;2023-02-03T13:12:56;0.93;;;0.90;;
60318;SDS011;46163;52.306;5.634;2023-02-03T13:15:27;1.00;;;0.90;;
60318;SDS011;46163;52.306;5.634;2023-02-03T13:18:04;0.85;;;0.70;;
60318;SDS011;46163;52.306;5.634;2023-02-03T13:20:32;0.60;;;0.60;;
60318;SDS011;46163;52.306;5.634;2023-02-03T13:23:04;0.85;;;0.85;;
60318;SDS011;46163;52.306;5.634;2023-02-03T13:28:34;0.85;;;0.80;;
60318;SDS011;46163;52.306;5.634;2023-02-03T13:42:18;0.70;;;0.70;;
60318;SDS011;46163;52.306;5.634;2023-02-03T13:44:52;0.50;;;0.50;;
60318;SDS011;46163;52.306;5.634;2023-02-03T13:47:25;0.60;;;0.60;;
60318;SDS011;46163;52.306;5.634;2023-02-03T13:49:55;1.05;;;0.80;;
60318;SDS011;46163;52.306;5.634;2023-02-03T13:52:51;0.80;;;0.77;;
60318;SDS011;46163;52.306;5.634;2023-02-03T13:55:41;0.80;;;0.80;;
60318;SDS011;46163;52.306;5.634;2023-02-03T13:58:28;2.45;;;0.82;;
60318;SDS011;46163;52.306;5.634;2023-02-03T14:00:59;2.13;;;1.17;;
60318;SDS011;46163;52.306;5.634;2023-02-03T14:05:57;1.08;;;0.70;;
60318;SDS011;46163;52.306;5.634;2023-02-03T14:13:54;0.80;;;0.80;;
60318;SDS011;46163;52.306;5.634;2023-02-03T14:16:48;0.68;;;0.68;;
60318;SDS011;46163;52.306;5.634;2023-02-03T14:24:31;0.85;;;0.85;;
60318;SDS011;46163;52.306;5.634;2023-02-03T14:26:59;1.00;;;0.80;;
60318;SDS011;46163;52.306;5.634;2023-02-03T14:29:29;1.10;;;0.75;;
60318;SDS011;46163;52.306;5.634;2023-02-03T14:31:58;2.20;;;0.95;;
60318;SDS011;46163;52.306;5.634;2023-02-03T14:34:27;1.00;;;0.77;;
60318;SDS011;46163;52.306;5.634;2023-02-03T14:36:53;1.60;;;1.13;;
60318;SDS011;46163;52.306;5.634;2023-02-03T14:44:59;0.77;;;0.60;;
60318;SDS011;46163;52.306;5.634;2023-02-03T14:53:17;1.15;;;0.73;;
60318;SDS011;46163;52.306;5.634;2023-02-03T14:56:12;1.27;;;0.80;;
60318;SDS011;46163;52.306;5.634;2023-02-03T14:58:55;1.10;;;0.90;;
60318;SDS011;46163;52.306;5.634;2023-02-03T15:04:18;0.60;;;0.60;;
60318;SDS011;46163;52.306;5.634;2023-02-03T15:06:50;0.52;;;0.52;;
60318;SDS011;46163;52.306;5.634;2023-02-03T15:14:48;0.65;;;0.65;;
60318;SDS011;46163;52.306;5.634;2023-02-03T15:17:20;1.17;;;0.70;;
60318;SDS011;46163;52.306;5.634;2023-02-03T15:19:51;0.70;;;0.70;;
60318;SDS011;46163;52.306;5.634;2023-02-03T15:22:20;1.15;;;0.70;;
60318;SDS011;46163;52.306;5.634;2023-02-03T15:24:51;0.50;;;0.50;;
60318;SDS011;46163;52.306;5.634;2023-02-03T15:27:21;0.80;;;0.80;;
60318;SDS011;46163;52.306;5.634;2023-02-03T15:29:48;1.60;;;0.80;;
60318;SDS011;46163;52.306;5.634;2023-02-03T15:32:37;0.95;;;0.80;;
60318;SDS011;46163;52.306;5.634;2023-02-03T15:35:06;1.25;;;1.13;;
60318;SDS011;46163;52.306;5.634;2023-02-03T15:37:42;0.75;;;0.60;;
60318;SDS011;46163;52.306;5.634;2023-02-03T15:40:17;0.77;;;0.77;;
60318;SDS011;46163;52.306;5.634;2023-02-03T15:45:48;2.05;;;1.10;;
60318;SDS011;46163;52.306;5.634;2023-02-03T15:48:41;3.58;;;1.45;;
60318;SDS011;46163;52.306;5.634;2023-02-03T15:51:16;2.65;;;1.40;;
60318;SDS011;46163;52.306;5.634;2023-02-03T15:54:22;1.40;;;1.00;;
60318;SDS011;46163;52.306;5.634;2023-02-03T15:57:01;6.38;;;1.42;;
60318;SDS011;46163;52.306;5.634;2023-02-03T15:59:35;3.08;;;1.52;;
60318;SDS011;46163;52.306;5.634;2023-02-03T16:02:14;2.28;;;1.33;;
60318;SDS011;46163;52.306;5.634;2023-02-03T16:04:46;3.75;;;1.50;;
60318;SDS011;46163;52.306;5.634;2023-02-03T16:07:17;2.80;;;1.48;;
60318;SDS011;46163;52.306;5.634;2023-02-03T16:09:45;3.33;;;1.40;;
60318;SDS011;46163;52.306;5.634;2023-02-03T16:12:22;3.97;;;1.50;;
60318;SDS011;46163;52.306;5.634;2023-02-03T16:14:50;5.38;;;1.85;;
60318;SDS011;46163;52.306;5.634;2023-02-03T16:25:20;4.17;;;1.70;;
60318;SDS011;46163;52.306;5.634;2023-02-03T16:30:54;3.83;;;1.83;;
60318;SDS011;46163;52.306;5.634;2023-02-03T16:33:45;2.70;;;1.67;;
60318;SDS011;46163;52.306;5.634;2023-02-03T16:36:30;4.20;;;1.90;;
60318;SDS011;46163;52.306;5.634;2023-02-03T16:39:15;4.30;;;1.90;;
60318;SDS011;46163;52.306;5.634;2023-02-03T16:41:59;4.38;;;1.70;;
60318;SDS011;46163;52.306;5.634;2023-02-03T16:44:43;4.18;;;2.08;;
60318;SDS011;46163;52.306;5.634;2023-02-03T16:47:29;3.25;;;1.73;;
60318;SDS011;46163;52.306;5.634;2023-02-03T16:50:17;4.00;;;1.80;;
60318;SDS011;46163;52.306;5.634;2023-02-03T16:53:03;2.88;;;1.45;;
60318;SDS011;46163;52.306;5.634;2023-02-03T16:55:30;5.45;;;1.73;;
60318;SDS011;46163;52.306;5.634;2023-02-03T16:57:55;3.80;;;1.58;;
60318;SDS011;46163;52.306;5.634;2023-02-03T17:00:21;3.88;;;1.58;;
60318;SDS011;46163;52.306;5.634;2023-02-03T17:02:48;2.70;;;1.42;;
60318;SDS011;46163;52.306;5.634;2023-02-03T17:05:16;2.88;;;1.48;;
60318;SDS011;46163;52.306;5.634;2023-02-03T17:07:42;3.40;;;1.50;;
60318;SDS011;46163;52.306;5.634;2023-02-03T17:10:09;2.47;;;1.30;;
60318;SDS011;46163;52.306;5.634;2023-02-03T17:12:35;5.07;;;1.55;;
60318;SDS011;46163;52.306;5.634;2023-02-03T17:15:02;2.83;;;1.60;;
60318;SDS011;46163;52.306;5.634;2023-02-03T17:17:29;2.35;;;1.40;;
60318;SDS011;46163;52.306;5.634;2023-02-03T17:19:54;1.73;;;1.33;;
60318;SDS011;46163;52.306;5.634;2023-02-03T17:22:21;1.83;;;1.50;;
60318;SDS011;46163;52.306;5.634;2023-02-03T17:24:47;3.38;;;1.55;;
60318;SDS011;46163;52.306;5.634;2023-02-03T17:27:12;4.07;;;1.42;;
60318;SDS011;46163;52.306;5.634;2023-02-03T17:29:38;3.53;;;1.70;;
60318;SDS011;46163;52.306;5.634;2023-02-03T17:32:04;2.65;;;1.30;;
60318;SDS011;46163;52.306;5.634;2023-02-03T17:34:29;3.00;;;1.50;;
60318;SDS011;46163;52.306;5.634;2023-02-03T17:36:55;2.67;;;1.60;;
60318;SDS011;46163;52.306;5.634;2023-02-03T17:39:21;2.55;;;1.48;;
60318;SDS011;46163;52.306;5.634;2023-02-03T17:41:52;4.82;;;1.60;;
60318;SDS011;46163;52.306;5.634;2023-02-03T17:44:18;3.05;;;1.40;;
60318;SDS011;46163;52.306;5.634;2023-02-03T17:46:44;3.50;;;1.60;;
60318;SDS011;46163;52.306;5.634;2023-02-03T17:49:10;3.63;;;1.70;;
60318;SDS011;46163;52.306;5.634;2023-02-03T17:51:35;3.38;;;1.55;;
60318;SDS011;46163;52.306;5.634;2023-02-03T17:54:01;2.83;;;1.50;;